sensor_id;sensor_type;location;lat;lon;timestamp;temperature;humidity
31046;DHT22;17711;54.018;9.300;2023-01-25T00:00:12;2.60;99.90
31046;DHT22;17711;54.018;9.300;2023-01-25T00:02:41;2.60;99.90
31046;DHT22;17711;54.018;9.300;2023-01-25T00:05:09;2.60;99.90
31046;DHT22;17711;54.018;9.300;2023-01-25T00:07:38;2.70;99.90
31046;DHT22;17711;54.018;9.300;2023-01-25T00:10:09;2.70;99.90
31046;DHT22;17711;54.018;9.300;2023-01-25T00:12:37;2.60;99.90
31046;DHT22;17711;54.018;9.300;2023-01-25T00:15:07;2.50;99.90
31046;DHT22;17711;54.018;9.300;2023-01-25T00:17:36;2.50;99.90
31046;DHT22;17711;54.018;9.300;2023-01-25T00:20:06;2.50;99.90
31046;DHT22;17711;54.018;9.300;2023-01-25T00:22:34;2.50;99.90
31046;DHT22;17711;54.018;9.300;2023-01-25T00:25:03;2.50;99.90
31046;DHT22;17711;54.018;9.300;2023-01-25T00:27:34;2.50;99.90
31046;DHT22;17711;54.018;9.300;2023-01-25T00:30:03;2.50;99.90
31046;DHT22;17711;54.018;9.300;2023-01-25T00:32:40;2.50;99.90
31046;DHT22;17711;54.018;9.300;2023-01-25T00:35:14;2.50;99.90
31046;DHT22;17711;54.018;9.300;2023-01-25T00:37:43;2.40;99.90
31046;DHT22;17711;54.018;9.300;2023-01-25T00:40:17;2.50;99.90
31046;DHT22;17711;54.018;9.300;2023-01-25T00:42:47;2.50;99.90
31046;DHT22;17711;54.018;9.300;2023-01-25T00:45:16;2.60;99.90
31046;DHT22;17711;54.018;9.300;2023-01-25T00:47:45;2.60;99.90
31046;DHT22;17711;54.018;9.300;2023-01-25T00:50:13;2.60;99.90
31046;DHT22;17711;54.018;9.300;2023-01-25T00:52:42;2.60;99.90
31046;DHT22;17711;54.018;9.300;2023-01-25T00:55:10;2.60;99.90
31046;DHT22;17711;54.018;9.300;2023-01-25T00:57:39;2.60;99.90
31046;DHT22;17711;54.018;9.300;2023-01-25T01:00:11;2.60;99.90
31046;DHT22;17711;54.018;9.300;2023-01-25T01:02:42;2.60;99.90
31046;DHT22;17711;54.018;9.300;2023-01-25T01:05:10;2.60;99.90
31046;DHT22;17711;54.018;9.300;2023-01-25T01:07:39;2.60;99.90
31046;DHT22;17711;54.018;9.300;2023-01-25T01:10:08;2.50;99.90
31046;DHT22;17711;54.018;9.300;2023-01-25T01:12:37;2.40;99.90
31046;DHT22;17711;54.018;9.300;2023-01-25T01:15:07;2.50;99.90
31046;DHT22;17711;54.018;9.300;2023-01-25T01:17:37;2.50;99.90
31046;DHT22;17711;54.018;9.300;2023-01-25T01:20:06;2.50;99.90
31046;DHT22;17711;54.018;9.300;2023-01-25T01:22:34;2.50;99.90
31046;DHT22;17711;54.018;9.300;2023-01-25T01:25:04;2.40;99.90
31046;DHT22;17711;54.018;9.300;2023-01-25T01:27:33;2.40;99.90
31046;DHT22;17711;54.018;9.300;2023-01-25T01:30:02;2.40;99.90
31046;DHT22;17711;54.018;9.300;2023-01-25T01:32:30;2.40;99.90
31046;DHT22;17711;54.018;9.300;2023-01-25T01:35:00;2.30;99.90
31046;DHT22;17711;54.018;9.300;2023-01-25T01:37:29;2.30;99.90
31046;DHT22;17711;54.018;9.300;2023-01-25T01:39:57;2.30;99.90
31046;DHT22;17711;54.018;9.300;2023-01-25T01:42:26;2.30;99.90
31046;DHT22;17711;54.018;9.300;2023-01-25T01:44:54;2.20;99.90
31046;DHT22;17711;54.018;9.300;2023-01-25T01:47:30;2.20;99.90
31046;DHT22;17711;54.018;9.300;2023-01-25T01:50:05;2.30;99.90
31046;DHT22;17711;54.018;9.300;2023-01-25T01:52:43;2.30;99.90
31046;DHT22;17711;54.018;9.300;2023-01-25T01:55:14;2.30;99.90
31046;DHT22;17711;54.018;9.300;2023-01-25T01:57:47;2.30;99.90
31046;DHT22;17711;54.018;9.300;2023-01-25T02:00:20;2.30;99.90
31046;DHT22;17711;54.018;9.300;2023-01-25T02:02:49;2.40;99.90
31046;DHT22;17711;54.018;9.300;2023-01-25T02:05:25;2.30;99.90
31046;DHT22;17711;54.018;9.300;2023-01-25T02:07:54;2.30;99.90
31046;DHT22;17711;54.018;9.300;2023-01-25T02:10:25;2.30;99.90
31046;DHT22;17711;54.018;9.300;2023-01-25T02:12:55;2.20;99.90
31046;DHT22;17711;54.018;9.300;2023-01-25T02:15:27;2.20;99.90
31046;DHT22;17711;54.018;9.300;2023-01-25T02:17:56;2.10;99.90
31046;DHT22;17711;54.018;9.300;2023-01-25T02:20:30;2.10;99.90
31046;DHT22;17711;54.018;9.300;2023-01-25T02:23:08;2.10;99.90
31046;DHT22;17711;54.018;9.300;2023-01-25T02:25:40;2.10;99.90
31046;DHT22;17711;54.018;9.300;2023-01-25T02:28:13;2.10;99.90
31046;DHT22;17711;54.018;9.300;2023-01-25T02:30:43;2.20;99.90
31046;DHT22;17711;54.018;9.300;2023-01-25T02:33:12;2.20;99.90
31046;DHT22;17711;54.018;9.300;2023-01-25T02:35:44;2.20;99.90
31046;DHT22;17711;54.018;9.300;2023-01-25T02:38:15;2.20;99.90
31046;DHT22;17711;54.018;9.300;2023-01-25T02:40:48;2.20;99.90
31046;DHT22;17711;54.018;9.300;2023-01-25T02:43:19;2.10;99.90
31046;DHT22;17711;54.018;9.300;2023-01-25T02:45:51;2.10;99.90
31046;DHT22;17711;54.018;9.300;2023-01-25T02:48:22;2.10;99.90
31046;DHT22;17711;54.018;9.300;2023-01-25T02:50:50;2.10;99.90
31046;DHT22;17711;54.018;9.300;2023-01-25T02:53:19;2.10;99.90
31046;DHT22;17711;54.018;9.300;2023-01-25T02:55:49;2.10;99.90
31046;DHT22;17711;54.018;9.300;2023-01-25T02:58:17;2.20;99.90
31046;DHT22;17711;54.018;9.300;2023-01-25T03:00:46;2.20;99.90
31046;DHT22;17711;54.018;9.300;2023-01-25T03:03:15;2.20;99.90
31046;DHT22;17711;54.018;9.300;2023-01-25T03:05:43;2.10;99.90
31046;DHT22;17711;54.018;9.300;2023-01-25T03:08:12;2.10;99.90
31046;DHT22;17711;54.018;9.300;2023-01-25T03:10:40;2.10;99.90
31046;DHT22;17711;54.018;9.300;2023-01-25T03:13:10;2.10;99.90
31046;DHT22;17711;54.018;9.300;2023-01-25T03:15:39;2.10;99.90
31046;DHT22;17711;54.018;9.300;2023-01-25T03:18:07;2.10;99.90
31046;DHT22;17711;54.018;9.300;2023-01-25T03:20:36;2.10;99.90
31046;DHT22;17711;54.018;9.300;2023-01-25T03:23:04;2.20;99.90
31046;DHT22;17711;54.018;9.300;2023-01-25T03:25:32;2.20;99.90
31046;DHT22;17711;54.018;9.300;2023-01-25T03:28:01;2.20;99.90
31046;DHT22;17711;54.018;9.300;2023-01-25T03:30:31;2.20;99.90
31046;DHT22;17711;54.018;9.300;2023-01-25T03:33:00;2.10;99.90
31046;DHT22;17711;54.018;9.300;2023-01-25T03:35:29;2.10;99.90
31046;DHT22;17711;54.018;9.300;2023-01-25T03:37:58;2.10;99.90
31046;DHT22;17711;54.018;9.300;2023-01-25T03:40:26;2.10;99.90
31046;DHT22;17711;54.018;9.300;2023-01-25T03:42:55;2.10;99.90
31046;DHT22;17711;54.018;9.300;2023-01-25T03:45:24;2.20;99.90
31046;DHT22;17711;54.018;9.300;2023-01-25T03:47:54;2.10;99.90
31046;DHT22;17711;54.018;9.300;2023-01-25T03:50:22;2.10;99.90
31046;DHT22;17711;54.018;9.300;2023-01-25T03:52:50;2.00;99.90
31046;DHT22;17711;54.018;9.300;2023-01-25T03:55:25;2.00;99.90
31046;DHT22;17711;54.018;9.300;2023-01-25T03:57:56;2.00;99.90
31046;DHT22;17711;54.018;9.300;2023-01-25T04:00:24;2.00;99.90
31046;DHT22;17711;54.018;9.300;2023-01-25T04:02:54;1.90;99.90
31046;DHT22;17711;54.018;9.300;2023-01-25T04:05:22;2.00;99.90
31046;DHT22;17711;54.018;9.300;2023-01-25T04:07:51;2.00;99.90
31046;DHT22;17711;54.018;9.300;2023-01-25T04:10:20;2.00;99.90
31046;DHT22;17711;54.018;9.300;2023-01-25T04:12:49;2.00;99.90
31046;DHT22;17711;54.018;9.300;2023-01-25T04:15:18;2.00;99.90
31046;DHT22;17711;54.018;9.300;2023-01-25T04:17:49;1.90;99.90
31046;DHT22;17711;54.018;9.300;2023-01-25T04:20:19;1.90;99.90
31046;DHT22;17711;54.018;9.300;2023-01-25T04:22:47;1.90;99.90
31046;DHT22;17711;54.018;9.300;2023-01-25T04:25:15;1.90;99.90
31046;DHT22;17711;54.018;9.300;2023-01-25T04:27:44;1.80;99.90
31046;DHT22;17711;54.018;9.300;2023-01-25T04:30:13;1.70;99.90
31046;DHT22;17711;54.018;9.300;2023-01-25T04:32:41;1.70;99.90
31046;DHT22;17711;54.018;9.300;2023-01-25T04:35:10;1.70;99.90
31046;DHT22;17711;54.018;9.300;2023-01-25T04:37:40;1.60;99.90
31046;DHT22;17711;54.018;9.300;2023-01-25T04:40:14;1.60;99.90
31046;DHT22;17711;54.018;9.300;2023-01-25T04:42:43;1.60;99.90
31046;DHT22;17711;54.018;9.300;2023-01-25T04:45:11;1.70;99.90
31046;DHT22;17711;54.018;9.300;2023-01-25T04:47:39;1.70;99.90
31046;DHT22;17711;54.018;9.300;2023-01-25T04:50:09;1.70;99.90
31046;DHT22;17711;54.018;9.300;2023-01-25T04:52:39;1.70;99.90
31046;DHT22;17711;54.018;9.300;2023-01-25T04:55:08;1.70;99.90
31046;DHT22;17711;54.018;9.300;2023-01-25T04:57:37;1.70;99.90
31046;DHT22;17711;54.018;9.300;2023-01-25T05:00:09;1.70;99.90
31046;DHT22;17711;54.018;9.300;2023-01-25T05:02:38;1.70;99.90
31046;DHT22;17711;54.018;9.300;2023-01-25T05:05:09;1.80;99.90
31046;DHT22;17711;54.018;9.300;2023-01-25T05:07:40;1.80;99.90
31046;DHT22;17711;54.018;9.300;2023-01-25T05:10:09;1.80;99.90
31046;DHT22;17711;54.018;9.300;2023-01-25T05:12:38;1.80;99.90
31046;DHT22;17711;54.018;9.300;2023-01-25T05:15:08;1.70;99.90
31046;DHT22;17711;54.018;9.300;2023-01-25T05:17:37;1.60;99.90
31046;DHT22;17711;54.018;9.300;2023-01-25T05:20:06;1.60;99.90
31046;DHT22;17711;54.018;9.300;2023-01-25T05:22:35;1.60;99.90
31046;DHT22;17711;54.018;9.300;2023-01-25T05:25:05;1.60;99.90
31046;DHT22;17711;54.018;9.300;2023-01-25T05:27:54;1.60;99.90
31046;DHT22;17711;54.018;9.300;2023-01-25T05:30:21;1.50;99.90
31046;DHT22;17711;54.018;9.300;2023-01-25T05:32:50;1.50;99.90
31046;DHT22;17711;54.018;9.300;2023-01-25T05:35:18;1.50;99.90
31046;DHT22;17711;54.018;9.300;2023-01-25T05:37:47;1.40;99.90
31046;DHT22;17711;54.018;9.300;2023-01-25T05:40:17;1.40;99.90
31046;DHT22;17711;54.018;9.300;2023-01-25T05:42:52;1.40;99.90
31046;DHT22;17711;54.018;9.300;2023-01-25T05:45:21;1.50;99.90
31046;DHT22;17711;54.018;9.300;2023-01-25T05:47:53;1.50;99.90
31046;DHT22;17711;54.018;9.300;2023-01-25T05:50:23;1.40;99.90
31046;DHT22;17711;54.018;9.300;2023-01-25T05:52:52;1.50;99.90
31046;DHT22;17711;54.018;9.300;2023-01-25T05:55:22;1.50;99.90
31046;DHT22;17711;54.018;9.300;2023-01-25T05:57:50;1.40;99.90
31046;DHT22;17711;54.018;9.300;2023-01-25T06:00:22;1.50;99.90
31046;DHT22;17711;54.018;9.300;2023-01-25T06:03:06;1.50;99.90
31046;DHT22;17711;54.018;9.300;2023-01-25T06:05:35;1.50;99.90
31046;DHT22;17711;54.018;9.300;2023-01-25T06:08:04;1.50;99.90
31046;DHT22;17711;54.018;9.300;2023-01-25T06:10:34;1.50;99.90
31046;DHT22;17711;54.018;9.300;2023-01-25T06:13:03;1.50;99.90
31046;DHT22;17711;54.018;9.300;2023-01-25T06:15:31;1.50;99.90
31046;DHT22;17711;54.018;9.300;2023-01-25T06:18:00;1.50;99.90
31046;DHT22;17711;54.018;9.300;2023-01-25T06:20:29;1.50;99.90
31046;DHT22;17711;54.018;9.300;2023-01-25T06:22:57;1.50;99.90
31046;DHT22;17711;54.018;9.300;2023-01-25T06:25:26;1.60;99.90
31046;DHT22;17711;54.018;9.300;2023-01-25T06:27:56;1.50;99.90
31046;DHT22;17711;54.018;9.300;2023-01-25T06:30:24;1.60;99.90
31046;DHT22;17711;54.018;9.300;2023-01-25T06:32:52;1.60;99.90
31046;DHT22;17711;54.018;9.300;2023-01-25T06:35:21;1.50;99.90
31046;DHT22;17711;54.018;9.300;2023-01-25T06:37:49;1.40;99.90
31046;DHT22;17711;54.018;9.300;2023-01-25T06:40:18;1.40;99.90
31046;DHT22;17711;54.018;9.300;2023-01-25T06:42:46;1.50;99.90
31046;DHT22;17711;54.018;9.300;2023-01-25T06:45:16;1.50;99.90
31046;DHT22;17711;54.018;9.300;2023-01-25T06:47:48;1.40;99.90
31046;DHT22;17711;54.018;9.300;2023-01-25T06:50:18;1.40;99.90
31046;DHT22;17711;54.018;9.300;2023-01-25T06:52:51;1.40;99.90
31046;DHT22;17711;54.018;9.300;2023-01-25T06:55:19;1.40;99.90
31046;DHT22;17711;54.018;9.300;2023-01-25T06:57:48;1.40;99.90
31046;DHT22;17711;54.018;9.300;2023-01-25T07:00:19;1.40;99.90
31046;DHT22;17711;54.018;9.300;2023-01-25T07:02:47;1.40;99.90
31046;DHT22;17711;54.018;9.300;2023-01-25T07:05:16;1.40;99.90
31046;DHT22;17711;54.018;9.300;2023-01-25T07:07:44;1.40;99.90
31046;DHT22;17711;54.018;9.300;2023-01-25T07:10:19;1.30;99.90
31046;DHT22;17711;54.018;9.300;2023-01-25T07:12:48;1.30;99.90
31046;DHT22;17711;54.018;9.300;2023-01-25T07:15:18;1.30;99.90
31046;DHT22;17711;54.018;9.300;2023-01-25T07:17:46;1.30;99.90
31046;DHT22;17711;54.018;9.300;2023-01-25T07:20:15;1.20;99.90
31046;DHT22;17711;54.018;9.300;2023-01-25T07:22:44;1.30;99.90
31046;DHT22;17711;54.018;9.300;2023-01-25T07:25:13;1.40;99.90
31046;DHT22;17711;54.018;9.300;2023-01-25T07:27:41;1.30;99.90
31046;DHT22;17711;54.018;9.300;2023-01-25T07:30:11;1.30;99.90
31046;DHT22;17711;54.018;9.300;2023-01-25T07:32:42;1.30;99.90
31046;DHT22;17711;54.018;9.300;2023-01-25T07:35:10;1.20;99.90
31046;DHT22;17711;54.018;9.300;2023-01-25T07:37:38;1.20;99.90
31046;DHT22;17711;54.018;9.300;2023-01-25T07:40:08;1.20;99.90
31046;DHT22;17711;54.018;9.300;2023-01-25T07:42:37;1.20;99.90
31046;DHT22;17711;54.018;9.300;2023-01-25T07:45:07;1.20;99.90
31046;DHT22;17711;54.018;9.300;2023-01-25T07:47:36;1.20;99.90
31046;DHT22;17711;54.018;9.300;2023-01-25T07:50:07;1.10;99.90
31046;DHT22;17711;54.018;9.300;2023-01-25T07:52:36;1.10;99.90
31046;DHT22;17711;54.018;9.300;2023-01-25T07:55:04;1.00;99.90
31046;DHT22;17711;54.018;9.300;2023-01-25T07:57:34;1.10;99.90
31046;DHT22;17711;54.018;9.300;2023-01-25T08:00:03;1.10;99.90
31046;DHT22;17711;54.018;9.300;2023-01-25T08:02:33;1.10;99.90
31046;DHT22;17711;54.018;9.300;2023-01-25T08:05:01;1.10;99.90
31046;DHT22;17711;54.018;9.300;2023-01-25T08:07:31;1.10;99.90
31046;DHT22;17711;54.018;9.300;2023-01-25T08:10:00;1.10;99.90
31046;DHT22;17711;54.018;9.300;2023-01-25T08:12:29;1.20;99.90
31046;DHT22;17711;54.018;9.300;2023-01-25T08:14:57;1.20;99.90
31046;DHT22;17711;54.018;9.300;2023-01-25T08:17:26;1.30;99.90
31046;DHT22;17711;54.018;9.300;2023-01-25T08:19:58;1.30;99.90
31046;DHT22;17711;54.018;9.300;2023-01-25T08:22:27;1.30;99.90
31046;DHT22;17711;54.018;9.300;2023-01-25T08:24:57;1.20;99.90
31046;DHT22;17711;54.018;9.300;2023-01-25T08:27:27;1.20;99.90
31046;DHT22;17711;54.018;9.300;2023-01-25T08:29:56;1.20;99.90
31046;DHT22;17711;54.018;9.300;2023-01-25T08:32:24;1.20;99.90
31046;DHT22;17711;54.018;9.300;2023-01-25T08:34:52;1.20;99.90
31046;DHT22;17711;54.018;9.300;2023-01-25T08:37:21;1.20;99.90
31046;DHT22;17711;54.018;9.300;2023-01-25T08:39:49;1.20;99.90
31046;DHT22;17711;54.018;9.300;2023-01-25T08:42:19;1.10;99.90
31046;DHT22;17711;54.018;9.300;2023-01-25T08:44:48;1.00;99.90
31046;DHT22;17711;54.018;9.300;2023-01-25T08:47:16;1.00;99.90
31046;DHT22;17711;54.018;9.300;2023-01-25T08:49:45;1.10;99.90
31046;DHT22;17711;54.018;9.300;2023-01-25T08:52:13;1.10;99.90
31046;DHT22;17711;54.018;9.300;2023-01-25T08:54:42;1.10;99.90
31046;DHT22;17711;54.018;9.300;2023-01-25T08:57:12;1.10;99.90
31046;DHT22;17711;54.018;9.300;2023-01-25T08:59:42;1.20;99.90
31046;DHT22;17711;54.018;9.300;2023-01-25T09:02:11;1.20;99.90
31046;DHT22;17711;54.018;9.300;2023-01-25T09:04:39;1.30;99.90
31046;DHT22;17711;54.018;9.300;2023-01-25T09:07:08;1.30;99.90
31046;DHT22;17711;54.018;9.300;2023-01-25T09:09:36;1.30;99.90
31046;DHT22;17711;54.018;9.300;2023-01-25T09:12:05;1.20;99.90
31046;DHT22;17711;54.018;9.300;2023-01-25T09:14:34;1.20;99.90
31046;DHT22;17711;54.018;9.300;2023-01-25T09:17:04;1.20;99.90
31046;DHT22;17711;54.018;9.300;2023-01-25T09:19:33;1.20;99.90
31046;DHT22;17711;54.018;9.300;2023-01-25T09:22:01;1.20;99.90
31046;DHT22;17711;54.018;9.300;2023-01-25T09:24:30;1.10;99.90
31046;DHT22;17711;54.018;9.300;2023-01-25T09:27:03;1.20;99.90
31046;DHT22;17711;54.018;9.300;2023-01-25T09:29:31;1.20;99.90
31046;DHT22;17711;54.018;9.300;2023-01-25T09:32:00;1.20;99.90
31046;DHT22;17711;54.018;9.300;2023-01-25T09:34:30;1.30;99.90
31046;DHT22;17711;54.018;9.300;2023-01-25T09:36:59;1.20;99.90
31046;DHT22;17711;54.018;9.300;2023-01-25T09:39:27;1.20;99.90
31046;DHT22;17711;54.018;9.300;2023-01-25T09:42:06;1.20;99.90
31046;DHT22;17711;54.018;9.300;2023-01-25T09:45:04;1.20;99.90
31046;DHT22;17711;54.018;9.300;2023-01-25T09:47:39;1.20;99.90
31046;DHT22;17711;54.018;9.300;2023-01-25T09:50:33;1.20;99.90
31046;DHT22;17711;54.018;9.300;2023-01-25T09:53:22;1.20;99.90
31046;DHT22;17711;54.018;9.300;2023-01-25T09:55:54;1.30;99.90
31046;DHT22;17711;54.018;9.300;2023-01-25T09:58:30;1.30;99.90
31046;DHT22;17711;54.018;9.300;2023-01-25T10:01:23;1.30;99.90
31046;DHT22;17711;54.018;9.300;2023-01-25T10:04:09;1.30;99.90
31046;DHT22;17711;54.018;9.300;2023-01-25T10:06:42;1.20;99.90
31046;DHT22;17711;54.018;9.300;2023-01-25T10:09:32;1.30;99.90
31046;DHT22;17711;54.018;9.300;2023-01-25T10:14:49;1.20;99.90
31046;DHT22;17711;54.018;9.300;2023-01-25T10:17:26;1.30;99.90
31046;DHT22;17711;54.018;9.300;2023-01-25T10:20:09;1.30;99.90
31046;DHT22;17711;54.018;9.300;2023-01-25T10:22:48;1.30;99.90
31046;DHT22;17711;54.018;9.300;2023-01-25T10:25:26;1.30;99.90
31046;DHT22;17711;54.018;9.300;2023-01-25T10:28:20;1.30;99.90
31046;DHT22;17711;54.018;9.300;2023-01-25T10:30:55;1.30;99.90
31046;DHT22;17711;54.018;9.300;2023-01-25T10:33:25;1.40;99.90
31046;DHT22;17711;54.018;9.300;2023-01-25T10:35:57;1.40;99.90
31046;DHT22;17711;54.018;9.300;2023-01-25T10:38:33;1.30;99.90
31046;DHT22;17711;54.018;9.300;2023-01-25T10:41:06;1.40;99.90
31046;DHT22;17711;54.018;9.300;2023-01-25T10:43:37;1.40;99.90
31046;DHT22;17711;54.018;9.300;2023-01-25T10:46:19;1.50;99.90
31046;DHT22;17711;54.018;9.300;2023-01-25T10:48:48;1.40;99.90
31046;DHT22;17711;54.018;9.300;2023-01-25T10:51:38;1.40;99.90
31046;DHT22;17711;54.018;9.300;2023-01-25T10:54:13;1.40;99.90
31046;DHT22;17711;54.018;9.300;2023-01-25T10:56:43;1.40;99.90
31046;DHT22;17711;54.018;9.300;2023-01-25T10:59:19;1.40;99.90
31046;DHT22;17711;54.018;9.300;2023-01-25T11:01:49;1.40;99.90
31046;DHT22;17711;54.018;9.300;2023-01-25T11:04:30;1.40;99.90
31046;DHT22;17711;54.018;9.300;2023-01-25T11:06:59;1.30;99.90
31046;DHT22;17711;54.018;9.300;2023-01-25T11:09:33;1.30;99.90
31046;DHT22;17711;54.018;9.300;2023-01-25T11:12:03;1.30;99.90
31046;DHT22;17711;54.018;9.300;2023-01-25T11:14:33;1.30;99.90
31046;DHT22;17711;54.018;9.300;2023-01-25T11:17:03;1.30;99.90
31046;DHT22;17711;54.018;9.300;2023-01-25T11:19:34;1.40;99.90
31046;DHT22;17711;54.018;9.300;2023-01-25T11:22:05;1.40;99.90
31046;DHT22;17711;54.018;9.300;2023-01-25T11:24:48;1.40;99.90
31046;DHT22;17711;54.018;9.300;2023-01-25T11:27:19;1.50;99.90
31046;DHT22;17711;54.018;9.300;2023-01-25T11:30:07;1.50;99.90
31046;DHT22;17711;54.018;9.300;2023-01-25T11:32:38;1.60;99.90
31046;DHT22;17711;54.018;9.300;2023-01-25T11:35:12;1.60;99.90
31046;DHT22;17711;54.018;9.300;2023-01-25T11:37:51;1.50;99.90
31046;DHT22;17711;54.018;9.300;2023-01-25T11:40:32;1.50;99.90
31046;DHT22;17711;54.018;9.300;2023-01-25T11:43:16;1.50;99.90
31046;DHT22;17711;54.018;9.300;2023-01-25T11:46:10;1.40;99.90
31046;DHT22;17711;54.018;9.300;2023-01-25T11:49:07;1.40;99.90
31046;DHT22;17711;54.018;9.300;2023-01-25T11:51:44;1.40;99.90
31046;DHT22;17711;54.018;9.300;2023-01-25T11:54:44;1.40;99.90
31046;DHT22;17711;54.018;9.300;2023-01-25T11:57:29;1.50;99.90
31046;DHT22;17711;54.018;9.300;2023-01-25T12:00:21;1.50;99.90
31046;DHT22;17711;54.018;9.300;2023-01-25T12:05:52;1.40;99.90
31046;DHT22;17711;54.018;9.300;2023-01-25T12:08:43;1.30;99.90
31046;DHT22;17711;54.018;9.300;2023-01-25T12:11:19;1.30;99.90
31046;DHT22;17711;54.018;9.300;2023-01-25T12:13:59;1.30;99.90
31046;DHT22;17711;54.018;9.300;2023-01-25T12:16:46;1.30;99.90
31046;DHT22;17711;54.018;9.300;2023-01-25T12:19:38;1.20;99.90
31046;DHT22;17711;54.018;9.300;2023-01-25T12:22:27;1.20;99.90
31046;DHT22;17711;54.018;9.300;2023-01-25T12:25:06;1.20;99.90
31046;DHT22;17711;54.018;9.300;2023-01-25T12:27:49;1.30;99.90
31046;DHT22;17711;54.018;9.300;2023-01-25T12:30:25;1.20;99.90
31046;DHT22;17711;54.018;9.300;2023-01-25T12:33:01;1.30;99.90
31046;DHT22;17711;54.018;9.300;2023-01-25T12:35:43;1.30;99.90
31046;DHT22;17711;54.018;9.300;2023-01-25T12:38:17;1.30;99.90
31046;DHT22;17711;54.018;9.300;2023-01-25T12:40:50;1.20;99.90
31046;DHT22;17711;54.018;9.300;2023-01-25T12:43:24;1.10;99.90
31046;DHT22;17711;54.018;9.300;2023-01-25T12:45:56;1.20;99.90
31046;DHT22;17711;54.018;9.300;2023-01-25T12:48:29;1.20;99.90
31046;DHT22;17711;54.018;9.300;2023-01-25T12:51:01;1.20;99.90
31046;DHT22;17711;54.018;9.300;2023-01-25T12:53:34;1.20;99.90
31046;DHT22;17711;54.018;9.300;2023-01-25T12:56:05;1.10;99.90
31046;DHT22;17711;54.018;9.300;2023-01-25T12:58:40;1.10;99.90
31046;DHT22;17711;54.018;9.300;2023-01-25T13:01:20;1.10;99.90
31046;DHT22;17711;54.018;9.300;2023-01-25T13:04:02;1.20;99.90
31046;DHT22;17711;54.018;9.300;2023-01-25T13:06:38;1.30;99.90
31046;DHT22;17711;54.018;9.300;2023-01-25T13:09:12;1.20;99.90
31046;DHT22;17711;54.018;9.300;2023-01-25T13:11:44;1.30;99.90
31046;DHT22;17711;54.018;9.300;2023-01-25T13:14:30;1.30;99.90
31046;DHT22;17711;54.018;9.300;2023-01-25T13:17:30;1.20;99.90
31046;DHT22;17711;54.018;9.300;2023-01-25T13:20:46;1.30;99.90
31046;DHT22;17711;54.018;9.300;2023-01-25T13:23:29;1.30;99.90
31046;DHT22;17711;54.018;9.300;2023-01-25T13:29:03;1.30;99.90
31046;DHT22;17711;54.018;9.300;2023-01-25T13:31:44;1.40;99.90
31046;DHT22;17711;54.018;9.300;2023-01-25T13:37:27;1.30;99.90
31046;DHT22;17711;54.018;9.300;2023-01-25T13:39:57;1.30;99.90
31046;DHT22;17711;54.018;9.300;2023-01-25T13:42:35;1.30;99.90
31046;DHT22;17711;54.018;9.300;2023-01-25T13:45:13;1.30;99.90
31046;DHT22;17711;54.018;9.300;2023-01-25T13:47:58;1.20;99.90
31046;DHT22;17711;54.018;9.300;2023-01-25T13:50:30;1.30;99.90
31046;DHT22;17711;54.018;9.300;2023-01-25T13:53:03;1.20;99.90
31046;DHT22;17711;54.018;9.300;2023-01-25T13:55:38;1.10;99.90
31046;DHT22;17711;54.018;9.300;2023-01-25T13:58:09;1.10;99.90
31046;DHT22;17711;54.018;9.300;2023-01-25T14:00:38;1.10;99.90
31046;DHT22;17711;54.018;9.300;2023-01-25T14:03:14;1.10;99.90
31046;DHT22;17711;54.018;9.300;2023-01-25T14:05:48;1.20;99.90
31046;DHT22;17711;54.018;9.300;2023-01-25T14:08:19;1.20;99.90
31046;DHT22;17711;54.018;9.300;2023-01-25T14:10:48;1.20;99.90
31046;DHT22;17711;54.018;9.300;2023-01-25T14:13:17;1.20;99.90
31046;DHT22;17711;54.018;9.300;2023-01-25T14:15:54;1.20;99.90
31046;DHT22;17711;54.018;9.300;2023-01-25T14:18:28;1.30;99.90
31046;DHT22;17711;54.018;9.300;2023-01-25T14:21:12;1.20;99.90
31046;DHT22;17711;54.018;9.300;2023-01-25T14:23:45;1.20;99.90
31046;DHT22;17711;54.018;9.300;2023-01-25T14:26:15;1.20;99.90
31046;DHT22;17711;54.018;9.300;2023-01-25T14:28:45;1.20;99.90
31046;DHT22;17711;54.018;9.300;2023-01-25T14:31:31;1.20;99.90
31046;DHT22;17711;54.018;9.300;2023-01-25T14:34:01;1.20;99.90
31046;DHT22;17711;54.018;9.300;2023-01-25T14:36:32;1.30;99.90
31046;DHT22;17711;54.018;9.300;2023-01-25T14:39:14;1.30;99.90
31046;DHT22;17711;54.018;9.300;2023-01-25T14:41:44;1.20;99.90
31046;DHT22;17711;54.018;9.300;2023-01-25T14:44:29;1.20;99.90
31046;DHT22;17711;54.018;9.300;2023-01-25T14:47:20;1.10;99.90
31046;DHT22;17711;54.018;9.300;2023-01-25T14:49:49;1.10;99.90
31046;DHT22;17711;54.018;9.300;2023-01-25T14:52:19;1.10;99.90
31046;DHT22;17711;54.018;9.300;2023-01-25T14:54:55;1.10;99.90
31046;DHT22;17711;54.018;9.300;2023-01-25T14:57:31;1.10;99.90
31046;DHT22;17711;54.018;9.300;2023-01-25T15:00:02;1.20;99.90
31046;DHT22;17711;54.018;9.300;2023-01-25T15:02:36;1.20;99.90
31046;DHT22;17711;54.018;9.300;2023-01-25T15:05:16;1.20;99.90
31046;DHT22;17711;54.018;9.300;2023-01-25T15:07:47;1.10;99.90
31046;DHT22;17711;54.018;9.300;2023-01-25T15:10:23;1.10;99.90
31046;DHT22;17711;54.018;9.300;2023-01-25T15:13:01;1.10;99.90
31046;DHT22;17711;54.018;9.300;2023-01-25T15:15:49;1.10;99.90
31046;DHT22;17711;54.018;9.300;2023-01-25T15:18:40;1.00;99.90
31046;DHT22;17711;54.018;9.300;2023-01-25T15:21:09;0.90;99.90
31046;DHT22;17711;54.018;9.300;2023-01-25T15:23:40;0.90;99.90
31046;DHT22;17711;54.018;9.300;2023-01-25T15:26:18;0.90;99.90
31046;DHT22;17711;54.018;9.300;2023-01-25T15:28:47;0.80;99.90
31046;DHT22;17711;54.018;9.300;2023-01-25T15:31:17;0.80;99.90
31046;DHT22;17711;54.018;9.300;2023-01-25T15:33:47;0.80;99.90
31046;DHT22;17711;54.018;9.300;2023-01-25T15:36:16;0.70;99.90
31046;DHT22;17711;54.018;9.300;2023-01-25T15:38:46;0.90;99.90
31046;DHT22;17711;54.018;9.300;2023-01-25T15:41:17;0.90;99.90
31046;DHT22;17711;54.018;9.300;2023-01-25T15:43:48;0.90;99.90
31046;DHT22;17711;54.018;9.300;2023-01-25T15:46:20;0.90;99.90
31046;DHT22;17711;54.018;9.300;2023-01-25T15:48:50;0.90;99.90
31046;DHT22;17711;54.018;9.300;2023-01-25T15:51:20;0.90;99.90
31046;DHT22;17711;54.018;9.300;2023-01-25T15:53:50;0.90;99.90
31046;DHT22;17711;54.018;9.300;2023-01-25T15:56:22;1.00;99.90
31046;DHT22;17711;54.018;9.300;2023-01-25T15:58:56;1.10;99.90
31046;DHT22;17711;54.018;9.300;2023-01-25T16:01:26;1.00;99.90
31046;DHT22;17711;54.018;9.300;2023-01-25T16:03:56;0.90;99.90
31046;DHT22;17711;54.018;9.300;2023-01-25T16:06:35;0.90;99.90
31046;DHT22;17711;54.018;9.300;2023-01-25T16:09:13;0.90;99.90
31046;DHT22;17711;54.018;9.300;2023-01-25T16:11:46;1.00;99.90
31046;DHT22;17711;54.018;9.300;2023-01-25T16:14:17;0.90;99.90
31046;DHT22;17711;54.018;9.300;2023-01-25T16:16:47;0.90;99.90
31046;DHT22;17711;54.018;9.300;2023-01-25T16:19:18;1.00;99.90
31046;DHT22;17711;54.018;9.300;2023-01-25T16:21:48;1.00;99.90
31046;DHT22;17711;54.018;9.300;2023-01-25T16:24:17;0.90;99.90
31046;DHT22;17711;54.018;9.300;2023-01-25T16:26:51;0.90;99.90
31046;DHT22;17711;54.018;9.300;2023-01-25T16:29:20;0.80;99.90